sensor_id;sensor_type;location;lat;lon;timestamp;P1;durP1;ratioP1;P2;durP2;ratioP2
38609;SDS011;24367;51.640;9.566;2023-10-13T00:02:15;5.40;;;3.50;;
38609;SDS011;24367;51.640;9.566;2023-10-13T00:04:44;4.05;;;2.90;;
38609;SDS011;24367;51.640;9.566;2023-10-13T00:07:11;6.05;;;3.10;;
38609;SDS011;24367;51.640;9.566;2023-10-13T00:09:37;5.00;;;3.03;;
38609;SDS011;24367;51.640;9.566;2023-10-13T00:12:06;5.25;;;3.42;;
38609;SDS011;24367;51.640;9.566;2023-10-13T00:14:36;4.35;;;3.20;;
38609;SDS011;24367;51.640;9.566;2023-10-13T00:17:04;4.10;;;2.95;;
38609;SDS011;24367;51.640;9.566;2023-10-13T00:19:33;4.72;;;3.20;;
38609;SDS011;24367;51.640;9.566;2023-10-13T00:22:09;4.20;;;3.10;;
38609;SDS011;24367;51.640;9.566;2023-10-13T00:24:36;6.28;;;3.25;;
38609;SDS011;24367;51.640;9.566;2023-10-13T00:27:10;5.47;;;3.15;;
38609;SDS011;24367;51.640;9.566;2023-10-13T00:29:55;4.75;;;3.42;;
38609;SDS011;24367;51.640;9.566;2023-10-13T00:32:36;4.78;;;3.05;;
38609;SDS011;24367;51.640;9.566;2023-10-13T00:35:05;3.92;;;2.85;;
38609;SDS011;24367;51.640;9.566;2023-10-13T00:37:36;5.15;;;3.17;;
38609;SDS011;24367;51.640;9.566;2023-10-13T00:40:07;4.88;;;3.30;;
38609;SDS011;24367;51.640;9.566;2023-10-13T00:42:49;5.65;;;2.90;;
38609;SDS011;24367;51.640;9.566;2023-10-13T00:45:19;4.18;;;3.17;;
38609;SDS011;24367;51.640;9.566;2023-10-13T00:47:45;3.97;;;2.88;;
38609;SDS011;24367;51.640;9.566;2023-10-13T00:50:14;5.35;;;3.10;;
38609;SDS011;24367;51.640;9.566;2023-10-13T00:52:42;5.32;;;3.35;;
38609;SDS011;24367;51.640;9.566;2023-10-13T00:55:12;4.00;;;3.05;;
38609;SDS011;24367;51.640;9.566;2023-10-13T00:57:39;4.07;;;3.08;;
38609;SDS011;24367;51.640;9.566;2023-10-13T01:00:08;4.72;;;3.08;;
38609;SDS011;24367;51.640;9.566;2023-10-13T01:02:43;3.75;;;3.00;;
38609;SDS011;24367;51.640;9.566;2023-10-13T01:05:10;5.50;;;3.13;;
38609;SDS011;24367;51.640;9.566;2023-10-13T01:07:44;4.38;;;2.75;;
38609;SDS011;24367;51.640;9.566;2023-10-13T01:10:11;3.85;;;2.97;;
38609;SDS011;24367;51.640;9.566;2023-10-13T01:12:38;3.70;;;2.80;;
38609;SDS011;24367;51.640;9.566;2023-10-13T01:15:09;4.10;;;2.90;;
38609;SDS011;24367;51.640;9.566;2023-10-13T01:17:36;3.70;;;2.75;;
38609;SDS011;24367;51.640;9.566;2023-10-13T01:20:03;3.80;;;2.85;;
38609;SDS011;24367;51.640;9.566;2023-10-13T01:22:31;4.10;;;2.95;;
38609;SDS011;24367;51.640;9.566;2023-10-13T01:24:59;4.80;;;3.20;;
38609;SDS011;24367;51.640;9.566;2023-10-13T01:27:34;4.10;;;2.92;;
38609;SDS011;24367;51.640;9.566;2023-10-13T01:30:03;4.03;;;2.90;;
38609;SDS011;24367;51.640;9.566;2023-10-13T01:32:31;3.63;;;2.67;;
38609;SDS011;24367;51.640;9.566;2023-10-13T01:34:58;4.22;;;2.75;;
38609;SDS011;24367;51.640;9.566;2023-10-13T01:37:30;3.63;;;2.88;;
38609;SDS011;24367;51.640;9.566;2023-10-13T01:39:57;3.97;;;2.70;;
38609;SDS011;24367;51.640;9.566;2023-10-13T01:42:24;4.00;;;2.95;;
38609;SDS011;24367;51.640;9.566;2023-10-13T01:44:51;4.10;;;3.20;;
38609;SDS011;24367;51.640;9.566;2023-10-13T01:47:16;4.50;;;2.90;;
38609;SDS011;24367;51.640;9.566;2023-10-13T01:49:43;3.78;;;2.60;;
38609;SDS011;24367;51.640;9.566;2023-10-13T01:52:12;3.03;;;2.70;;
38609;SDS011;24367;51.640;9.566;2023-10-13T01:54:41;4.40;;;2.88;;
38609;SDS011;24367;51.640;9.566;2023-10-13T01:57:08;4.30;;;2.95;;
38609;SDS011;24367;51.640;9.566;2023-10-13T01:59:40;3.65;;;2.78;;
38609;SDS011;24367;51.640;9.566;2023-10-13T02:02:09;4.53;;;2.72;;
38609;SDS011;24367;51.640;9.566;2023-10-13T02:04:37;3.30;;;2.60;;
38609;SDS011;24367;51.640;9.566;2023-10-13T02:07:07;3.40;;;2.67;;
38609;SDS011;24367;51.640;9.566;2023-10-13T02:09:39;4.10;;;2.80;;
38609;SDS011;24367;51.640;9.566;2023-10-13T02:12:05;4.45;;;2.80;;
38609;SDS011;24367;51.640;9.566;2023-10-13T02:14:32;3.25;;;2.40;;
38609;SDS011;24367;51.640;9.566;2023-10-13T02:16:59;3.78;;;2.72;;
38609;SDS011;24367;51.640;9.566;2023-10-13T02:19:37;4.50;;;2.70;;
38609;SDS011;24367;51.640;9.566;2023-10-13T02:22:05;3.53;;;2.63;;
38609;SDS011;24367;51.640;9.566;2023-10-13T02:24:35;3.17;;;2.30;;
38609;SDS011;24367;51.640;9.566;2023-10-13T02:27:05;3.60;;;2.70;;
38609;SDS011;24367;51.640;9.566;2023-10-13T02:29:38;4.22;;;2.50;;
38609;SDS011;24367;51.640;9.566;2023-10-13T02:32:05;4.85;;;2.72;;
38609;SDS011;24367;51.640;9.566;2023-10-13T02:34:38;3.17;;;2.20;;
38609;SDS011;24367;51.640;9.566;2023-10-13T02:37:09;3.50;;;2.50;;
38609;SDS011;24367;51.640;9.566;2023-10-13T02:39:35;3.65;;;2.63;;
38609;SDS011;24367;51.640;9.566;2023-10-13T02:42:01;3.35;;;2.50;;
38609;SDS011;24367;51.640;9.566;2023-10-13T02:44:32;3.88;;;2.60;;
38609;SDS011;24367;51.640;9.566;2023-10-13T02:46:58;3.50;;;2.65;;
38609;SDS011;24367;51.640;9.566;2023-10-13T02:49:26;4.28;;;2.47;;
38609;SDS011;24367;51.640;9.566;2023-10-13T02:51:52;4.50;;;2.67;;
38609;SDS011;24367;51.640;9.566;2023-10-13T02:54:20;3.25;;;2.25;;
38609;SDS011;24367;51.640;9.566;2023-10-13T02:56:46;4.07;;;2.60;;
38609;SDS011;24367;51.640;9.566;2023-10-13T02:59:21;3.17;;;2.42;;
38609;SDS011;24367;51.640;9.566;2023-10-13T03:01:59;3.47;;;2.40;;
38609;SDS011;24367;51.640;9.566;2023-10-13T03:04:27;3.53;;;2.55;;
38609;SDS011;24367;51.640;9.566;2023-10-13T03:06:52;3.15;;;2.40;;
38609;SDS011;24367;51.640;9.566;2023-10-13T03:09:19;3.67;;;2.53;;
38609;SDS011;24367;51.640;9.566;2023-10-13T03:11:47;3.42;;;2.30;;
38609;SDS011;24367;51.640;9.566;2023-10-13T03:14:15;3.95;;;2.70;;
38609;SDS011;24367;51.640;9.566;2023-10-13T03:19:15;3.30;;;2.53;;
38609;SDS011;24367;51.640;9.566;2023-10-13T03:21:45;3.28;;;2.47;;
38609;SDS011;24367;51.640;9.566;2023-10-13T03:24:20;2.65;;;2.05;;
38609;SDS011;24367;51.640;9.566;2023-10-13T03:26:48;2.88;;;2.08;;
38609;SDS011;24367;51.640;9.566;2023-10-13T03:29:17;3.03;;;2.22;;
38609;SDS011;24367;51.640;9.566;2023-10-13T03:31:47;3.83;;;2.60;;
38609;SDS011;24367;51.640;9.566;2023-10-13T03:34:28;3.22;;;2.17;;
38609;SDS011;24367;51.640;9.566;2023-10-13T03:36:56;3.70;;;2.45;;
38609;SDS011;24367;51.640;9.566;2023-10-13T03:39:23;3.38;;;2.13;;
38609;SDS011;24367;51.640;9.566;2023-10-13T03:41:56;3.35;;;2.50;;
38609;SDS011;24367;51.640;9.566;2023-10-13T03:44:24;2.88;;;2.08;;
38609;SDS011;24367;51.640;9.566;2023-10-13T03:46:55;3.00;;;2.20;;
38609;SDS011;24367;51.640;9.566;2023-10-13T03:49:22;3.20;;;2.00;;
38609;SDS011;24367;51.640;9.566;2023-10-13T03:51:50;3.58;;;2.25;;
38609;SDS011;24367;51.640;9.566;2023-10-13T03:54:21;3.67;;;2.10;;
38609;SDS011;24367;51.640;9.566;2023-10-13T03:56:47;3.92;;;2.47;;
38609;SDS011;24367;51.640;9.566;2023-10-13T03:59:17;4.00;;;2.60;;
38609;SDS011;24367;51.640;9.566;2023-10-13T04:01:44;2.97;;;2.20;;
38609;SDS011;24367;51.640;9.566;2023-10-13T04:04:12;3.97;;;2.40;;
38609;SDS011;24367;51.640;9.566;2023-10-13T04:06:40;3.67;;;2.50;;
38609;SDS011;24367;51.640;9.566;2023-10-13T04:09:39;2.97;;;2.20;;
38609;SDS011;24367;51.640;9.566;2023-10-13T04:12:24;5.20;;;2.58;;
38609;SDS011;24367;51.640;9.566;2023-10-13T04:15:10;3.50;;;2.65;;
38609;SDS011;24367;51.640;9.566;2023-10-13T04:17:49;3.25;;;2.33;;
38609;SDS011;24367;51.640;9.566;2023-10-13T04:20:16;3.60;;;2.20;;
38609;SDS011;24367;51.640;9.566;2023-10-13T04:22:57;2.97;;;1.90;;
38609;SDS011;24367;51.640;9.566;2023-10-13T04:25:43;3.13;;;2.20;;
38609;SDS011;24367;51.640;9.566;2023-10-13T04:28:31;3.10;;;2.30;;
38609;SDS011;24367;51.640;9.566;2023-10-13T04:31:00;3.13;;;2.40;;
38609;SDS011;24367;51.640;9.566;2023-10-13T04:33:37;2.80;;;2.20;;
38609;SDS011;24367;51.640;9.566;2023-10-13T04:36:14;3.42;;;2.38;;
38609;SDS011;24367;51.640;9.566;2023-10-13T04:38:43;3.50;;;2.53;;
38609;SDS011;24367;51.640;9.566;2023-10-13T04:41:26;2.80;;;2.20;;
38609;SDS011;24367;51.640;9.566;2023-10-13T04:43:57;3.05;;;2.15;;
38609;SDS011;24367;51.640;9.566;2023-10-13T04:46:30;3.00;;;2.08;;
38609;SDS011;24367;51.640;9.566;2023-10-13T04:49:19;3.00;;;2.05;;
38609;SDS011;24367;51.640;9.566;2023-10-13T04:51:54;3.00;;;2.25;;
38609;SDS011;24367;51.640;9.566;2023-10-13T04:54:26;3.95;;;2.25;;
38609;SDS011;24367;51.640;9.566;2023-10-13T04:56:59;3.40;;;1.95;;
38609;SDS011;24367;51.640;9.566;2023-10-13T04:59:40;3.50;;;2.40;;
38609;SDS011;24367;51.640;9.566;2023-10-13T05:02:20;2.58;;;1.80;;
38609;SDS011;24367;51.640;9.566;2023-10-13T05:05:07;2.95;;;2.13;;
38609;SDS011;24367;51.640;9.566;2023-10-13T05:07:47;3.35;;;2.25;;
38609;SDS011;24367;51.640;9.566;2023-10-13T05:10:31;2.90;;;1.90;;
38609;SDS011;24367;51.640;9.566;2023-10-13T05:13:17;3.22;;;2.45;;
38609;SDS011;24367;51.640;9.566;2023-10-13T05:16:10;2.75;;;1.95;;
38609;SDS011;24367;51.640;9.566;2023-10-13T05:18:54;2.58;;;1.70;;
38609;SDS011;24367;51.640;9.566;2023-10-13T05:21:38;2.92;;;2.08;;
38609;SDS011;24367;51.640;9.566;2023-10-13T05:24:22;2.65;;;1.80;;
38609;SDS011;24367;51.640;9.566;2023-10-13T05:27:07;3.38;;;1.88;;
38609;SDS011;24367;51.640;9.566;2023-10-13T05:29:52;2.85;;;2.00;;
38609;SDS011;24367;51.640;9.566;2023-10-13T05:32:37;2.45;;;1.95;;
38609;SDS011;24367;51.640;9.566;2023-10-13T05:35:21;3.78;;;2.20;;
38609;SDS011;24367;51.640;9.566;2023-10-13T05:38:06;4.10;;;2.08;;
38609;SDS011;24367;51.640;9.566;2023-10-13T05:40:53;2.88;;;2.00;;
38609;SDS011;24367;51.640;9.566;2023-10-13T05:43:33;3.22;;;2.25;;
38609;SDS011;24367;51.640;9.566;2023-10-13T05:46:19;5.57;;;2.08;;
38609;SDS011;24367;51.640;9.566;2023-10-13T05:49:14;3.30;;;2.10;;
38609;SDS011;24367;51.640;9.566;2023-10-13T05:52:05;3.17;;;2.00;;
38609;SDS011;24367;51.640;9.566;2023-10-13T05:54:44;5.55;;;2.55;;
38609;SDS011;24367;51.640;9.566;2023-10-13T05:57:29;5.68;;;2.63;;
38609;SDS011;24367;51.640;9.566;2023-10-13T06:00:14;2.72;;;1.85;;
38609;SDS011;24367;51.640;9.566;2023-10-13T06:02:59;4.03;;;2.33;;
38609;SDS011;24367;51.640;9.566;2023-10-13T06:05:43;3.20;;;2.30;;
38609;SDS011;24367;51.640;9.566;2023-10-13T06:08:27;4.07;;;2.20;;
38609;SDS011;24367;51.640;9.566;2023-10-13T06:11:12;3.35;;;2.20;;
38609;SDS011;24367;51.640;9.566;2023-10-13T06:13:56;4.43;;;2.20;;
38609;SDS011;24367;51.640;9.566;2023-10-13T06:16:40;3.05;;;2.15;;
38609;SDS011;24367;51.640;9.566;2023-10-13T06:19:26;4.45;;;2.35;;
38609;SDS011;24367;51.640;9.566;2023-10-13T06:22:10;3.97;;;2.40;;
38609;SDS011;24367;51.640;9.566;2023-10-13T06:24:54;2.88;;;2.17;;
38609;SDS011;24367;51.640;9.566;2023-10-13T06:27:38;2.75;;;2.03;;
38609;SDS011;24367;51.640;9.566;2023-10-13T06:30:23;4.25;;;2.28;;
38609;SDS011;24367;51.640;9.566;2023-10-13T06:32:50;3.42;;;2.33;;
38609;SDS011;24367;51.640;9.566;2023-10-13T06:35:17;3.47;;;2.42;;
38609;SDS011;24367;51.640;9.566;2023-10-13T06:37:49;4.88;;;2.50;;
38609;SDS011;24367;51.640;9.566;2023-10-13T06:40:15;4.30;;;2.40;;
38609;SDS011;24367;51.640;9.566;2023-10-13T06:42:51;4.28;;;2.10;;
38609;SDS011;24367;51.640;9.566;2023-10-13T06:45:18;4.20;;;2.38;;
38609;SDS011;24367;51.640;9.566;2023-10-13T06:47:46;3.22;;;2.40;;
38609;SDS011;24367;51.640;9.566;2023-10-13T06:50:19;3.60;;;2.40;;
38609;SDS011;24367;51.640;9.566;2023-10-13T06:52:49;4.13;;;2.20;;
38609;SDS011;24367;51.640;9.566;2023-10-13T06:55:19;3.92;;;2.25;;
38609;SDS011;24367;51.640;9.566;2023-10-13T06:57:52;3.63;;;2.28;;
38609;SDS011;24367;51.640;9.566;2023-10-13T07:00:18;4.18;;;2.17;;
38609;SDS011;24367;51.640;9.566;2023-10-13T07:02:53;4.28;;;2.40;;
38609;SDS011;24367;51.640;9.566;2023-10-13T07:05:33;3.20;;;2.17;;
38609;SDS011;24367;51.640;9.566;2023-10-13T07:08:00;7.50;;;2.40;;
38609;SDS011;24367;51.640;9.566;2023-10-13T07:10:29;4.45;;;2.28;;
38609;SDS011;24367;51.640;9.566;2023-10-13T07:13:00;3.42;;;2.35;;
38609;SDS011;24367;51.640;9.566;2023-10-13T07:15:34;3.83;;;2.33;;
38609;SDS011;24367;51.640;9.566;2023-10-13T07:18:09;3.80;;;2.13;;
38609;SDS011;24367;51.640;9.566;2023-10-13T07:20:39;4.32;;;2.20;;
38609;SDS011;24367;51.640;9.566;2023-10-13T07:23:09;3.47;;;2.63;;
38609;SDS011;24367;51.640;9.566;2023-10-13T07:25:37;3.28;;;1.95;;
38609;SDS011;24367;51.640;9.566;2023-10-13T07:28:06;3.45;;;2.13;;
38609;SDS011;24367;51.640;9.566;2023-10-13T07:30:33;3.75;;;2.10;;
38609;SDS011;24367;51.640;9.566;2023-10-13T07:33:13;5.03;;;2.50;;
38609;SDS011;24367;51.640;9.566;2023-10-13T07:35:41;3.00;;;2.00;;
38609;SDS011;24367;51.640;9.566;2023-10-13T07:38:08;2.83;;;1.98;;
38609;SDS011;24367;51.640;9.566;2023-10-13T07:40:34;3.38;;;2.28;;
38609;SDS011;24367;51.640;9.566;2023-10-13T07:43:07;3.92;;;2.22;;
38609;SDS011;24367;51.640;9.566;2023-10-13T07:45:36;5.90;;;2.30;;
38609;SDS011;24367;51.640;9.566;2023-10-13T07:48:03;4.25;;;2.72;;
38609;SDS011;24367;51.640;9.566;2023-10-13T07:50:37;3.50;;;2.28;;
38609;SDS011;24367;51.640;9.566;2023-10-13T07:53:05;4.75;;;2.05;;
38609;SDS011;24367;51.640;9.566;2023-10-13T07:55:43;3.50;;;2.60;;
38609;SDS011;24367;51.640;9.566;2023-10-13T07:58:10;3.95;;;2.30;;
38609;SDS011;24367;51.640;9.566;2023-10-13T08:00:38;3.95;;;2.20;;
38609;SDS011;24367;51.640;9.566;2023-10-13T08:03:12;4.47;;;2.45;;
38609;SDS011;24367;51.640;9.566;2023-10-13T08:05:56;5.03;;;2.20;;
38609;SDS011;24367;51.640;9.566;2023-10-13T08:08:31;2.90;;;2.25;;
38609;SDS011;24367;51.640;9.566;2023-10-13T08:11:03;4.33;;;2.47;;
38609;SDS011;24367;51.640;9.566;2023-10-13T08:13:36;3.50;;;2.25;;
38609;SDS011;24367;51.640;9.566;2023-10-13T08:16:02;3.10;;;2.00;;
38609;SDS011;24367;51.640;9.566;2023-10-13T08:18:33;2.75;;;2.03;;
38609;SDS011;24367;51.640;9.566;2023-10-13T08:21:01;3.28;;;2.10;;
38609;SDS011;24367;51.640;9.566;2023-10-13T08:23:30;3.38;;;2.25;;
38609;SDS011;24367;51.640;9.566;2023-10-13T08:26:11;3.95;;;2.65;;
38609;SDS011;24367;51.640;9.566;2023-10-13T08:28:54;3.53;;;2.63;;
38609;SDS011;24367;51.640;9.566;2023-10-13T08:31:20;3.13;;;2.20;;
38609;SDS011;24367;51.640;9.566;2023-10-13T08:33:49;3.30;;;2.33;;
38609;SDS011;24367;51.640;9.566;2023-10-13T08:36:28;3.40;;;2.10;;
38609;SDS011;24367;51.640;9.566;2023-10-13T08:38:57;3.10;;;2.20;;
38609;SDS011;24367;51.640;9.566;2023-10-13T08:41:41;3.08;;;1.98;;
38609;SDS011;24367;51.640;9.566;2023-10-13T08:44:19;3.47;;;2.30;;
38609;SDS011;24367;51.640;9.566;2023-10-13T08:46:57;6.32;;;2.22;;
38609;SDS011;24367;51.640;9.566;2023-10-13T08:49:42;3.55;;;1.92;;
38609;SDS011;24367;51.640;9.566;2023-10-13T08:52:15;3.42;;;2.25;;
38609;SDS011;24367;51.640;9.566;2023-10-13T08:55:03;4.03;;;2.38;;
38609;SDS011;24367;51.640;9.566;2023-10-13T08:57:59;3.67;;;2.45;;
38609;SDS011;24367;51.640;9.566;2023-10-13T09:00:29;4.07;;;2.10;;
38609;SDS011;24367;51.640;9.566;2023-10-13T09:03:19;4.63;;;2.28;;
38609;SDS011;24367;51.640;9.566;2023-10-13T09:05:54;2.88;;;1.83;;
38609;SDS011;24367;51.640;9.566;2023-10-13T09:08:27;3.42;;;2.20;;
38609;SDS011;24367;51.640;9.566;2023-10-13T09:11:02;4.43;;;2.17;;
38609;SDS011;24367;51.640;9.566;2023-10-13T09:13:36;4.78;;;2.50;;
38609;SDS011;24367;51.640;9.566;2023-10-13T09:16:09;3.45;;;2.17;;
38609;SDS011;24367;51.640;9.566;2023-10-13T09:18:41;3.58;;;2.05;;
38609;SDS011;24367;51.640;9.566;2023-10-13T09:21:11;3.53;;;2.28;;
38609;SDS011;24367;51.640;9.566;2023-10-13T09:23:56;5.47;;;2.55;;
38609;SDS011;24367;51.640;9.566;2023-10-13T09:26:38;3.55;;;2.17;;
38609;SDS011;24367;51.640;9.566;2023-10-13T09:29:13;3.67;;;2.17;;
38609;SDS011;24367;51.640;9.566;2023-10-13T09:31:39;3.47;;;2.00;;
38609;SDS011;24367;51.640;9.566;2023-10-13T09:34:10;3.17;;;2.20;;
38609;SDS011;24367;51.640;9.566;2023-10-13T09:36:35;3.65;;;2.28;;
38609;SDS011;24367;51.640;9.566;2023-10-13T09:39:02;3.47;;;2.30;;
38609;SDS011;24367;51.640;9.566;2023-10-13T09:41:40;3.47;;;2.00;;
38609;SDS011;24367;51.640;9.566;2023-10-13T09:44:07;3.88;;;2.22;;
38609;SDS011;24367;51.640;9.566;2023-10-13T09:46:33;2.65;;;2.03;;
38609;SDS011;24367;51.640;9.566;2023-10-13T09:49:09;3.00;;;2.30;;
38609;SDS011;24367;51.640;9.566;2023-10-13T09:51:40;2.90;;;2.10;;
38609;SDS011;24367;51.640;9.566;2023-10-13T09:54:10;4.20;;;2.20;;
38609;SDS011;24367;51.640;9.566;2023-10-13T09:56:47;2.67;;;2.00;;
38609;SDS011;24367;51.640;9.566;2023-10-13T09:59:18;3.47;;;2.30;;
38609;SDS011;24367;51.640;9.566;2023-10-13T10:01:46;3.85;;;1.80;;
38609;SDS011;24367;51.640;9.566;2023-10-13T10:04:16;3.53;;;2.17;;
38609;SDS011;24367;51.640;9.566;2023-10-13T10:06:51;3.22;;;1.92;;
38609;SDS011;24367;51.640;9.566;2023-10-13T10:09:18;4.55;;;1.98;;
38609;SDS011;24367;51.640;9.566;2023-10-13T10:11:59;4.70;;;1.80;;
38609;SDS011;24367;51.640;9.566;2023-10-13T10:14:40;2.33;;;1.80;;
38609;SDS011;24367;51.640;9.566;2023-10-13T10:17:10;2.83;;;2.05;;
38609;SDS011;24367;51.640;9.566;2023-10-13T10:19:47;2.53;;;1.85;;
38609;SDS011;24367;51.640;9.566;2023-10-13T10:22:24;3.08;;;2.13;;
38609;SDS011;24367;51.640;9.566;2023-10-13T10:24:55;3.30;;;2.08;;
38609;SDS011;24367;51.640;9.566;2023-10-13T10:27:27;3.45;;;2.30;;
38609;SDS011;24367;51.640;9.566;2023-10-13T10:29:54;5.38;;;2.42;;
38609;SDS011;24367;51.640;9.566;2023-10-13T10:32:21;3.60;;;2.10;;
38609;SDS011;24367;51.640;9.566;2023-10-13T10:34:49;4.13;;;2.42;;
38609;SDS011;24367;51.640;9.566;2023-10-13T10:37:15;6.03;;;2.45;;
38609;SDS011;24367;51.640;9.566;2023-10-13T10:39:43;2.58;;;1.80;;
38609;SDS011;24367;51.640;9.566;2023-10-13T10:42:15;3.67;;;2.25;;
38609;SDS011;24367;51.640;9.566;2023-10-13T10:44:43;3.95;;;2.28;;
38609;SDS011;24367;51.640;9.566;2023-10-13T10:47:13;2.80;;;1.77;;
38609;SDS011;24367;51.640;9.566;2023-10-13T10:49:44;4.30;;;2.20;;
38609;SDS011;24367;51.640;9.566;2023-10-13T10:52:11;3.47;;;2.20;;
38609;SDS011;24367;51.640;9.566;2023-10-13T10:54:43;4.18;;;2.38;;
38609;SDS011;24367;51.640;9.566;2023-10-13T10:57:14;4.10;;;2.50;;
38609;SDS011;24367;51.640;9.566;2023-10-13T10:59:44;3.10;;;2.03;;
38609;SDS011;24367;51.640;9.566;2023-10-13T11:02:11;3.33;;;2.17;;
38609;SDS011;24367;51.640;9.566;2023-10-13T11:04:43;3.72;;;2.15;;
38609;SDS011;24367;51.640;9.566;2023-10-13T11:07:20;5.87;;;2.37;;
38609;SDS011;24367;51.640;9.566;2023-10-13T11:09:48;3.58;;;2.30;;
38609;SDS011;24367;51.640;9.566;2023-10-13T11:12:18;3.83;;;2.03;;
38609;SDS011;24367;51.640;9.566;2023-10-13T11:15:02;3.03;;;2.33;;
38609;SDS011;24367;51.640;9.566;2023-10-13T11:17:37;4.15;;;2.10;;
38609;SDS011;24367;51.640;9.566;2023-10-13T11:20:16;3.80;;;1.80;;
38609;SDS011;24367;51.640;9.566;2023-10-13T11:22:50;3.00;;;2.10;;
38609;SDS011;24367;51.640;9.566;2023-10-13T11:25:21;4.13;;;2.22;;
38609;SDS011;24367;51.640;9.566;2023-10-13T11:27:54;3.58;;;2.10;;
38609;SDS011;24367;51.640;9.566;2023-10-13T11:30:23;4.40;;;2.10;;
38609;SDS011;24367;51.640;9.566;2023-10-13T11:33:06;3.78;;;2.28;;
38609;SDS011;24367;51.640;9.566;2023-10-13T11:35:33;3.97;;;2.22;;
38609;SDS011;24367;51.640;9.566;2023-10-13T11:38:20;4.18;;;2.50;;
38609;SDS011;24367;51.640;9.566;2023-10-13T11:40:51;5.93;;;2.42;;
38609;SDS011;24367;51.640;9.566;2023-10-13T11:43:37;3.97;;;2.28;;
38609;SDS011;24367;51.640;9.566;2023-10-13T11:46:19;4.53;;;2.08;;
38609;SDS011;24367;51.640;9.566;2023-10-13T11:49:01;4.63;;;2.30;;
38609;SDS011;24367;51.640;9.566;2023-10-13T11:51:39;4.97;;;2.47;;
38609;SDS011;24367;51.640;9.566;2023-10-13T11:54:09;4.57;;;2.45;;
38609;SDS011;24367;51.640;9.566;2023-10-13T11:56:36;6.03;;;2.65;;
38609;SDS011;24367;51.640;9.566;2023-10-13T11:59:04;8.57;;;3.58;;
38609;SDS011;24367;51.640;9.566;2023-10-13T12:01:32;7.85;;;3.60;;
38609;SDS011;24367;51.640;9.566;2023-10-13T12:04:12;10.82;;;4.50;;
38609;SDS011;24367;51.640;9.566;2023-10-13T12:06:59;19.85;;;4.80;;
38609;SDS011;24367;51.640;9.566;2023-10-13T12:09:39;12.07;;;5.32;;
38609;SDS011;24367;51.640;9.566;2023-10-13T12:12:17;10.60;;;5.72;;
38609;SDS011;24367;51.640;9.566;2023-10-13T12:14:43;13.85;;;5.88;;
38609;SDS011;24367;51.640;9.566;2023-10-13T12:17:21;18.80;;;5.57;;
38609;SDS011;24367;51.640;9.566;2023-10-13T12:19:53;12.55;;;5.50;;
38609;SDS011;24367;51.640;9.566;2023-10-13T12:22:19;10.95;;;5.75;;
38609;SDS011;24367;51.640;9.566;2023-10-13T12:24:53;10.00;;;5.88;;
38609;SDS011;24367;51.640;9.566;2023-10-13T12:27:20;9.70;;;6.03;;
38609;SDS011;24367;51.640;9.566;2023-10-13T12:29:49;14.52;;;6.50;;
38609;SDS011;24367;51.640;9.566;2023-10-13T12:32:16;15.25;;;5.80;;
38609;SDS011;24367;51.640;9.566;2023-10-13T12:34:49;16.98;;;6.30;;
38609;SDS011;24367;51.640;9.566;2023-10-13T12:37:42;11.00;;;5.30;;
38609;SDS011;24367;51.640;9.566;2023-10-13T12:40:29;17.77;;;6.78;;
38609;SDS011;24367;51.640;9.566;2023-10-13T12:43:14;13.00;;;6.50;;
38609;SDS011;24367;51.640;9.566;2023-10-13T12:45:58;16.08;;;7.05;;
38609;SDS011;24367;51.640;9.566;2023-10-13T12:48:42;17.52;;;6.65;;
38609;SDS011;24367;51.640;9.566;2023-10-13T12:51:42;15.07;;;7.00;;
38609;SDS011;24367;51.640;9.566;2023-10-13T12:54:17;14.30;;;6.90;;
38609;SDS011;24367;51.640;9.566;2023-10-13T12:56:48;14.25;;;6.75;;
38609;SDS011;24367;51.640;9.566;2023-10-13T12:59:20;9.65;;;5.60;;
38609;SDS011;24367;51.640;9.566;2023-10-13T13:01:51;14.98;;;7.13;;
38609;SDS011;24367;51.640;9.566;2023-10-13T13:04:18;11.52;;;5.95;;
38609;SDS011;24367;51.640;9.566;2023-10-13T13:06:47;9.98;;;5.63;;
38609;SDS011;24367;51.640;9.566;2023-10-13T13:09:14;12.70;;;6.13;;
38609;SDS011;24367;51.640;9.566;2023-10-13T13:11:40;12.60;;;6.32;;
38609;SDS011;24367;51.640;9.566;2023-10-13T13:14:07;11.70;;;6.35;;
38609;SDS011;24367;51.640;9.566;2023-10-13T13:16:35;10.60;;;6.25;;
38609;SDS011;24367;51.640;9.566;2023-10-13T13:19:04;14.40;;;6.97;;
38609;SDS011;24367;51.640;9.566;2023-10-13T13:21:36;12.23;;;6.47;;
38609;SDS011;24367;51.640;9.566;2023-10-13T13:24:05;13.52;;;6.53;;
38609;SDS011;24367;51.640;9.566;2023-10-13T13:26:36;13.02;;;6.40;;
38609;SDS011;24367;51.640;9.566;2023-10-13T13:29:05;11.27;;;7.00;;
38609;SDS011;24367;51.640;9.566;2023-10-13T13:31:34;12.38;;;6.35;;
38609;SDS011;24367;51.640;9.566;2023-10-13T13:34:06;30.33;;;7.55;;
38609;SDS011;24367;51.640;9.566;2023-10-13T13:36:34;16.17;;;6.80;;
38609;SDS011;24367;51.640;9.566;2023-10-13T13:39:00;13.95;;;6.72;;
38609;SDS011;24367;51.640;9.566;2023-10-13T13:41:29;12.05;;;6.63;;
38609;SDS011;24367;51.640;9.566;2023-10-13T13:43:57;14.90;;;6.60;;
38609;SDS011;24367;51.640;9.566;2023-10-13T13:46:38;13.07;;;6.97;;
38609;SDS011;24367;51.640;9.566;2023-10-13T13:49:06;12.18;;;7.47;;
38609;SDS011;24367;51.640;9.566;2023-10-13T13:51:42;11.25;;;6.57;;
38609;SDS011;24367;51.640;9.566;2023-10-13T13:54:16;13.55;;;6.95;;
38609;SDS011;24367;51.640;9.566;2023-10-13T13:56:45;13.95;;;6.47;;
38609;SDS011;24367;51.640;9.566;2023-10-13T13:59:12;12.57;;;6.63;;
38609;SDS011;24367;51.640;9.566;2023-10-13T14:01:41;12.68;;;6.80;;
38609;SDS011;24367;51.640;9.566;2023-10-13T14:04:09;13.88;;;6.68;;
38609;SDS011;24367;51.640;9.566;2023-10-13T14:06:36;15.02;;;6.53;;
38609;SDS011;24367;51.640;9.566;2023-10-13T14:09:04;13.55;;;6.43;;
38609;SDS011;24367;51.640;9.566;2023-10-13T14:11:39;14.73;;;7.10;;
38609;SDS011;24367;51.640;9.566;2023-10-13T14:14:24;12.70;;;6.65;;
38609;SDS011;24367;51.640;9.566;2023-10-13T14:16:59;11.80;;;5.88;;
38609;SDS011;24367;51.640;9.566;2023-10-13T14:19:32;13.07;;;6.55;;
38609;SDS011;24367;51.640;9.566;2023-10-13T14:21:59;10.73;;;6.80;;
38609;SDS011;24367;51.640;9.566;2023-10-13T14:24:31;11.32;;;6.22;;
38609;SDS011;24367;51.640;9.566;2023-10-13T14:26:59;11.75;;;6.45;;
38609;SDS011;24367;51.640;9.566;2023-10-13T14:29:34;10.05;;;5.88;;
38609;SDS011;24367;51.640;9.566;2023-10-13T14:32:05;10.00;;;5.85;;
38609;SDS011;24367;51.640;9.566;2023-10-13T14:34:37;16.73;;;6.38;;
38609;SDS011;24367;51.640;9.566;2023-10-13T14:37:04;9.70;;;5.88;;
38609;SDS011;24367;51.640;9.566;2023-10-13T14:39:31;12.40;;;5.97;;
38609;SDS011;24367;51.640;9.566;2023-10-13T14:41:59;15.68;;;6.43;;
38609;SDS011;24367;51.640;9.566;2023-10-13T14:44:27;13.43;;;6.68;;
38609;SDS011;24367;51.640;9.566;2023-10-13T14:46:56;15.68;;;6.60;;
38609;SDS011;24367;51.640;9.566;2023-10-13T14:49:22;13.23;;;5.60;;
38609;SDS011;24367;51.640;9.566;2023-10-13T14:51:49;9.73;;;6.15;;
38609;SDS011;24367;51.640;9.566;2023-10-13T14:54:15;8.27;;;5.05;;
38609;SDS011;24367;51.640;9.566;2023-10-13T14:56:42;10.27;;;6.18;;
38609;SDS011;24367;51.640;9.566;2023-10-13T14:59:09;8.88;;;5.60;;
38609;SDS011;24367;51.640;9.566;2023-10-13T15:01:43;9.50;;;5.85;;
38609;SDS011;24367;51.640;9.566;2023-10-13T15:04:10;12.38;;;6.05;;
38609;SDS011;24367;51.640;9.566;2023-10-13T15:06:37;7.78;;;5.15;;
38609;SDS011;24367;51.640;9.566;2023-10-13T15:09:04;11.48;;;6.03;;
38609;SDS011;24367;51.640;9.566;2023-10-13T15:11:36;11.20;;;5.55;;
38609;SDS011;24367;51.640;9.566;2023-10-13T15:14:02;10.02;;;6.28;;
38609;SDS011;24367;51.640;9.566;2023-10-13T15:16:31;11.68;;;5.68;;
38609;SDS011;24367;51.640;9.566;2023-10-13T15:18:58;10.43;;;5.57;;
38609;SDS011;24367;51.640;9.566;2023-10-13T15:21:29;7.72;;;5.30;;
38609;SDS011;24367;51.640;9.566;2023-10-13T15:23:59;8.02;;;5.05;;